createdAt,value
2019-01-10T00:00:22.079Z,102728.95
2019-01-10T00:02:52.942Z,102731.07
2019-01-10T00:05:21.215Z,102731.45
2019-01-10T00:07:49.176Z,102735.78
2019-01-10T00:10:19.270Z,102745.59
2019-01-10T00:12:47.339Z,102738.73
2019-01-10T00:15:16.363Z,102739.59
2019-01-10T00:17:44.549Z,102739.97
2019-01-10T00:20:15.224Z,102735.14
2019-01-10T00:22:45.230Z,102746.80
2019-01-10T00:25:13.465Z,102757.56
2019-01-10T00:27:41.457Z,102761.47
2019-01-10T00:30:13.940Z,102754.44
2019-01-10T00:32:41.910Z,102757.88
2019-01-10T00:35:10.262Z,102759.21
2019-01-10T00:37:38.315Z,102757.81
2019-01-10T00:40:09.456Z,102752.22
2019-01-10T00:42:37.403Z,102747.11
2019-01-10T00:45:09.194Z,102752.77
2019-01-10T00:47:37.323Z,102753.98
2019-01-10T00:50:11.728Z,102754.42
2019-01-10T00:52:39.744Z,102758.68
2019-01-10T00:55:08.202Z,102761.34
2019-01-10T00:57:36.745Z,102761.81
2019-01-10T01:00:11.392Z,102759.14
2019-01-10T01:02:40.216Z,102760.46
2019-01-10T01:05:10.660Z,102765.59
2019-01-10T01:07:38.566Z,102759.00
2019-01-10T01:10:09.705Z,102761.10
2019-01-10T01:12:39.340Z,102768.42
2019-01-10T01:15:10.599Z,102767.36
2019-01-10T01:17:38.701Z,102765.73
2019-01-10T01:20:07.998Z,102770.52
2019-01-10T01:22:35.965Z,102768.41
2019-01-10T01:25:05.288Z,102775.23
2019-01-10T01:27:33.254Z,102776.82
2019-01-10T01:30:01.397Z,102778.14
2019-01-10T01:32:31.079Z,102784.23
2019-01-10T01:34:59.083Z,102787.58
2019-01-10T01:37:27.130Z,102785.11
2019-01-10T01:39:55.163Z,102787.42
2019-01-10T01:42:23.186Z,102789.91
2019-01-10T01:44:54.114Z,102791.63
2019-01-10T01:47:22.106Z,102795.27
2019-01-10T01:49:49.977Z,102798.36
2019-01-10T01:52:18.043Z,102799.68
2019-01-10T01:54:47.861Z,102793.75
2019-01-10T01:57:15.786Z,102798.13
2019-01-10T01:59:46.507Z,102798.98
2019-01-10T02:02:14.522Z,102801.02
2019-01-10T02:04:43.467Z,102814.78
2019-01-10T02:07:11.615Z,102808.31
2019-01-10T02:09:39.988Z,102810.88
2019-01-10T02:12:08.192Z,102815.27
2019-01-10T02:14:36.410Z,102824.31
2019-01-10T02:17:05.439Z,102817.81
2019-01-10T02:19:36.766Z,102831.97
2019-01-10T02:22:07.613Z,102831.55
2019-01-10T02:24:36.809Z,102840.27
2019-01-10T02:27:05.267Z,102833.83
2019-01-10T02:29:34.382Z,102841.48
2019-01-10T02:32:05.927Z,102841.97
2019-01-10T02:34:34.608Z,102836.72
2019-01-10T02:37:03.008Z,102838.89
2019-01-10T02:39:31.710Z,102833.81
2019-01-10T02:41:59.856Z,102830.41
2019-01-10T02:44:28.367Z,102839.52
2019-01-10T02:46:57.101Z,102832.32
2019-01-10T02:49:25.719Z,102826.39
2019-01-10T02:51:53.877Z,102833.94
2019-01-10T02:54:23.037Z,102839.60
2019-01-10T02:56:51.673Z,102845.31
2019-01-10T02:59:20.240Z,102845.27
2019-01-10T03:01:50.242Z,102841.91
2019-01-10T03:04:18.694Z,102845.64
2019-01-10T03:06:49.012Z,102851.97
2019-01-10T03:09:17.763Z,102843.00
2019-01-10T03:11:46.532Z,102823.28
2019-01-10T03:14:15.343Z,102834.95
2019-01-10T03:16:43.807Z,102826.48
2019-01-10T03:19:11.716Z,102823.10
2019-01-10T03:21:39.554Z,102830.41
2019-01-10T03:24:07.594Z,102819.64
2019-01-10T03:26:35.591Z,102820.63
2019-01-10T03:29:03.650Z,102832.73
2019-01-10T03:31:31.555Z,102830.23
2019-01-10T03:33:59.650Z,102824.16
2019-01-10T03:36:30.657Z,102833.16
2019-01-10T03:38:58.547Z,102834.95
2019-01-10T03:41:26.482Z,102823.01
2019-01-10T03:43:54.471Z,102844.14
2019-01-10T03:46:22.379Z,102823.59
2019-01-10T03:48:50.402Z,102825.72
2019-01-10T03:51:18.421Z,102831.25
2019-01-10T03:53:46.368Z,102813.22
2019-01-10T03:56:14.405Z,102813.72
2019-01-10T03:58:42.450Z,102813.31
2019-01-10T04:01:10.504Z,102814.25
2019-01-10T04:03:38.287Z,102813.33
2019-01-10T04:06:06.239Z,102811.65
2019-01-10T04:08:34.124Z,102815.98
2019-01-10T04:11:01.990Z,102819.44
2019-01-10T04:13:29.983Z,102816.51
2019-01-10T04:15:58.030Z,102819.80
2019-01-10T04:18:25.932Z,102827.17
2019-01-10T04:20:53.915Z,102832.30
2019-01-10T04:23:21.863Z,102834.86
2019-01-10T04:25:49.987Z,102833.05
2019-01-10T04:28:17.902Z,102843.09
2019-01-10T04:30:46.460Z,102850.41
2019-01-10T04:33:14.639Z,102838.20
2019-01-10T04:35:42.534Z,102845.02
2019-01-10T04:38:10.490Z,102841.22
2019-01-10T04:40:38.351Z,102841.14
2019-01-10T04:43:06.335Z,102848.84
2019-01-10T04:45:37.309Z,102842.80
2019-01-10T04:48:05.270Z,102844.58
2019-01-10T04:50:33.324Z,102830.58
2019-01-10T04:53:01.385Z,102842.38
2019-01-10T04:55:29.435Z,102839.05
2019-01-10T04:57:57.372Z,102836.42
2019-01-10T05:00:25.319Z,102827.03
2019-01-10T05:02:53.364Z,102830.91
2019-01-10T05:05:23.588Z,102830.97
2019-01-10T05:07:51.469Z,102839.70
2019-01-10T05:10:19.517Z,102828.94
2019-01-10T05:12:47.379Z,102837.62
2019-01-10T05:15:15.583Z,102835.43
2019-01-10T05:17:43.484Z,102840.19
2019-01-10T05:20:15.361Z,102830.71
2019-01-10T05:22:43.416Z,102844.48
2019-01-10T05:25:11.392Z,102837.61
2019-01-10T05:27:39.503Z,102839.20
2019-01-10T05:30:27.860Z,102832.12
2019-01-10T05:32:55.862Z,102851.16
2019-01-10T05:35:24.429Z,102848.27
2019-01-10T05:37:52.546Z,102849.28
2019-01-10T05:40:20.527Z,102860.84
2019-01-10T05:42:48.444Z,102853.99
2019-01-10T05:45:17.234Z,102857.88
2019-01-10T05:47:45.177Z,102856.59
2019-01-10T05:50:17.427Z,102847.98
2019-01-10T05:52:44.641Z,102842.44
2019-01-10T05:55:16.155Z,102851.58
2019-01-10T05:57:44.210Z,102852.92
2019-01-10T06:00:19.765Z,102864.30
2019-01-10T06:02:47.825Z,102849.24
2019-01-10T06:05:15.726Z,102840.98
2019-01-10T06:07:43.620Z,102831.05
2019-01-10T06:10:16.645Z,102834.98
2019-01-10T06:12:44.626Z,102838.02
2019-01-10T06:15:13.608Z,102848.44
2019-01-10T06:17:41.684Z,102843.21
2019-01-10T06:20:12.033Z,102856.13
2019-01-10T06:22:39.899Z,102854.88
2019-01-10T06:25:07.879Z,102865.27
2019-01-10T06:27:35.916Z,102871.78
2019-01-10T06:30:06.440Z,102883.84
2019-01-10T06:32:35.789Z,102885.55
2019-01-10T06:35:03.634Z,102893.78
2019-01-10T06:37:31.525Z,102886.84
2019-01-10T06:39:59.583Z,102895.08
2019-01-10T06:42:27.509Z,102901.12
2019-01-10T06:44:55.438Z,102900.25
2019-01-10T06:47:23.510Z,102897.23
2019-01-10T06:49:51.469Z,102893.34
2019-01-10T06:52:19.331Z,102898.98
2019-01-10T06:54:56.316Z,102900.77
2019-01-10T06:57:19.555Z,102900.36
2019-01-10T06:59:50.444Z,102883.45
2019-01-10T07:02:18.413Z,102885.20
2019-01-10T07:04:46.375Z,102883.45
2019-01-10T07:07:14.486Z,102890.39
2019-01-10T07:09:42.686Z,102893.43
2019-01-10T07:12:10.534Z,102893.42
2019-01-10T07:14:38.553Z,102889.95
2019-01-10T07:17:06.435Z,102891.69
2019-01-10T07:19:47.443Z,102904.21
2019-01-10T07:22:17.154Z,102898.62
2019-01-10T07:24:51.267Z,102910.25
2019-01-10T07:27:19.149Z,102889.53
2019-01-10T07:29:59.632Z,102902.02
2019-01-10T07:32:30.874Z,102895.98
2019-01-10T07:35:01.252Z,102902.47
2019-01-10T07:37:29.178Z,102908.55
2019-01-10T07:39:57.030Z,102902.91
2019-01-10T07:42:31.796Z,102912.88
2019-01-10T07:45:02.759Z,102911.14
2019-01-10T07:47:46.283Z,102923.27
2019-01-10T07:50:14.667Z,102923.27
2019-01-10T07:52:42.576Z,102919.81
2019-01-10T07:55:10.630Z,102927.16
2019-01-10T07:57:38.743Z,102927.59
2019-01-10T08:00:07.023Z,102941.02
2019-01-10T08:02:35.027Z,102936.69
2019-01-10T08:05:03.189Z,102938.43
2019-01-10T08:07:33.934Z,102938.87
2019-01-10T08:10:03.523Z,102939.73
2019-01-10T08:12:31.491Z,102933.28
2019-01-10T08:14:59.536Z,102939.27
2019-01-10T08:17:28.307Z,102947.02
2019-01-10T08:19:56.425Z,102948.23
2019-01-10T08:22:28.081Z,102944.34
2019-01-10T08:24:54.463Z,102951.20
2019-01-10T08:27:22.595Z,102952.40
2019-01-10T08:29:50.440Z,102964.58
2019-01-10T08:32:20.582Z,102962.51
2019-01-10T08:34:48.587Z,102968.20
2019-01-10T08:37:16.381Z,102972.11
2019-01-10T08:39:44.365Z,102971.76
2019-01-10T08:42:12.549Z,102970.92
2019-01-10T08:44:44.926Z,102977.09
2019-01-10T08:47:13.083Z,102968.37
2019-01-10T08:49:43.330Z,102977.04
2019-01-10T08:52:12.754Z,102977.90
2019-01-10T08:54:48.720Z,102974.08
2019-01-10T08:57:23.063Z,102974.81
2019-01-10T08:59:54.366Z,102979.55
2019-01-10T09:02:22.538Z,102980.39
2019-01-10T09:04:57.250Z,102983.48
2019-01-10T09:07:25.305Z,102984.02
2019-01-10T09:09:53.251Z,102977.53
2019-01-10T09:12:21.712Z,102979.27
2019-01-10T09:14:56.373Z,102975.41
2019-01-10T09:17:24.675Z,102973.25
2019-01-10T09:19:59.990Z,102968.52
2019-01-10T09:22:32.020Z,102971.57
2019-01-10T09:25:02.217Z,102981.09
2019-01-10T09:27:31.825Z,102978.47
2019-01-10T09:30:04.124Z,102979.78
2019-01-10T09:32:32.318Z,102974.58
2019-01-10T09:35:00.443Z,102978.08
2019-01-10T09:37:41.603Z,102979.34
2019-01-10T09:40:12.956Z,102990.17
2019-01-10T09:42:45.321Z,102984.50
2019-01-10T09:45:17.028Z,102993.20
2019-01-10T09:47:50.562Z,102985.87
2019-01-10T09:50:25.497Z,102988.90
2019-01-10T09:53:03.876Z,102992.37
2019-01-10T09:55:33.404Z,102988.47
2019-01-10T09:58:01.527Z,102993.69
2019-01-10T10:00:32.678Z,102991.92
2019-01-10T10:03:02.963Z,102991.88
2019-01-10T10:05:36.961Z,102994.94
2019-01-10T10:08:05.242Z,102991.06
2019-01-10T10:10:33.266Z,103000.17
2019-01-10T10:13:03.248Z,102997.59
2019-01-10T10:15:33.806Z,102993.67
2019-01-10T10:18:01.670Z,102993.23
2019-01-10T10:20:30.863Z,102998.86
2019-01-10T10:22:58.741Z,102994.55
2019-01-10T10:25:26.640Z,102991.94
2019-01-10T10:27:54.408Z,102990.19
2019-01-10T10:30:22.509Z,102987.59
2019-01-10T10:32:50.292Z,102988.89
2019-01-10T10:35:18.816Z,102988.45
2019-01-10T10:37:46.961Z,102992.39
2019-01-10T10:40:17.653Z,102984.95
2019-01-10T10:42:45.819Z,102986.67
2019-01-10T10:45:16.121Z,102984.52
2019-01-10T10:47:44.317Z,102981.48
2019-01-10T10:50:16.017Z,102977.98
2019-01-10T10:52:44.215Z,102984.55
2019-01-10T10:55:12.345Z,102983.24
2019-01-10T10:57:40.250Z,102978.46
2019-01-10T11:00:13.468Z,102972.80
2019-01-10T11:02:41.444Z,102964.98
2019-01-10T11:05:09.433Z,102962.80
2019-01-10T11:07:37.206Z,102961.87
2019-01-10T11:10:06.475Z,102961.39
2019-01-10T11:12:34.369Z,102959.13
2019-01-10T11:15:02.177Z,102950.78
2019-01-10T11:17:30.140Z,102951.14
2019-01-10T11:19:57.942Z,102940.22
2019-01-10T11:22:25.878Z,102949.25
2019-01-10T11:24:53.998Z,102938.74
2019-01-10T11:27:21.847Z,102943.45
2019-01-10T11:29:50.071Z,102942.05
2019-01-10T11:32:20.321Z,102942.86
2019-01-10T11:34:48.258Z,102941.54
2019-01-10T11:37:16.240Z,102932.39
2019-01-10T11:39:44.258Z,102934.94
2019-01-10T11:42:12.201Z,102927.05
2019-01-10T11:44:40.219Z,102932.23
2019-01-10T11:47:08.109Z,102929.08
2019-01-10T11:49:36.117Z,102937.23
2019-01-10T11:52:03.923Z,102931.97
2019-01-10T11:54:31.890Z,102937.17
2019-01-10T11:56:59.752Z,102933.95
2019-01-10T11:59:27.777Z,102935.64
2019-01-10T12:01:55.558Z,102935.06
2019-01-10T12:04:23.455Z,102931.04
2019-01-10T12:06:53.523Z,102927.44
2019-01-10T12:09:26.643Z,102929.48
2019-01-10T12:11:54.771Z,102929.34
2019-01-10T12:14:22.817Z,102927.42
2019-01-10T12:16:54.692Z,102926.92
2019-01-10T12:19:22.686Z,102929.73
2019-01-10T12:21:50.918Z,102924.30
2019-01-10T12:24:19.007Z,102929.05
2019-01-10T12:26:47.158Z,102925.98
2019-01-10T12:29:17.049Z,102920.22
2019-01-10T12:31:50.974Z,102928.05
2019-01-10T12:34:22.118Z,102925.02
2019-01-10T12:36:50.130Z,102924.64
2019-01-10T12:39:25.004Z,102915.46
2019-01-10T12:41:58.959Z,102917.97
2019-01-10T12:44:30.898Z,102914.07
2019-01-10T12:46:58.928Z,102916.61
2019-01-10T12:49:29.616Z,102910.41
2019-01-10T12:51:58.809Z,102914.83
2019-01-10T12:54:26.893Z,102907.16
2019-01-10T12:56:55.118Z,102912.60
2019-01-10T12:59:23.266Z,102905.20
2019-01-10T13:01:55.226Z,102914.37
2019-01-10T13:04:29.066Z,102910.30
2019-01-10T13:07:01.023Z,102902.72
2019-01-10T13:09:30.081Z,102902.89
2019-01-10T13:12:01.003Z,102901.42
2019-01-10T13:14:29.012Z,102900.69
2019-01-10T13:16:57.064Z,102898.52
2019-01-10T13:19:26.090Z,102901.89
2019-01-10T13:21:54.016Z,102911.31
2019-01-10T13:24:22.062Z,102908.59
2019-01-10T13:26:53.251Z,102911.16
2019-01-10T13:29:26.674Z,102914.81
2019-01-10T13:31:54.897Z,102913.48
2019-01-10T13:34:23.015Z,102902.19
2019-01-10T13:36:52.875Z,102908.16
2019-01-10T13:39:20.991Z,102901.29
2019-01-10T13:41:48.939Z,102905.64
2019-01-10T13:44:19.453Z,102910.31
2019-01-10T13:46:55.843Z,102910.16
2019-01-10T13:49:25.319Z,102904.39
2019-01-10T13:51:53.222Z,102905.86
2019-01-10T13:54:23.161Z,102904.59
2019-01-10T13:56:50.937Z,102907.96
2019-01-10T13:59:18.942Z,102914.37
2019-01-10T14:01:47.033Z,102915.28
2019-01-10T14:04:18.221Z,102920.05
2019-01-10T14:06:46.208Z,102914.69
2019-01-10T14:09:15.196Z,102913.49
2019-01-10T14:11:43.261Z,102913.98
2019-01-10T14:14:11.205Z,102909.22
2019-01-10T14:16:39.159Z,102914.90
2019-01-10T14:19:09.208Z,102905.14
2019-01-10T14:21:38.287Z,102906.91
2019-01-10T14:24:11.189Z,102914.30
2019-01-10T14:26:40.421Z,102910.97
2019-01-10T14:29:10.251Z,102908.50
2019-01-10T14:31:38.098Z,102909.73
2019-01-10T14:34:06.112Z,102908.79
2019-01-10T14:36:35.005Z,102907.13
2019-01-10T14:39:06.212Z,102910.64
2019-01-10T14:41:34.081Z,102909.33
2019-01-10T14:44:01.989Z,102902.33
2019-01-10T14:46:29.972Z,102903.30
2019-01-10T14:48:57.795Z,102901.22
2019-01-10T14:51:25.947Z,102907.70
2019-01-10T14:53:53.792Z,102910.25
2019-01-10T14:56:21.862Z,102906.83
2019-01-10T14:58:49.799Z,102912.13
2019-01-10T15:01:17.623Z,102898.69
2019-01-10T15:03:48.795Z,102909.13
2019-01-10T15:06:16.867Z,102914.36
2019-01-10T15:08:44.752Z,102910.52
2019-01-10T15:11:12.739Z,102911.81
2019-01-10T15:13:40.746Z,102906.64
2019-01-10T15:16:08.872Z,102913.20
2019-01-10T15:18:36.919Z,102910.08
2019-01-10T15:21:04.851Z,102914.09
2019-01-10T15:23:32.895Z,102907.17
2019-01-10T15:26:04.132Z,102907.58
2019-01-10T15:28:31.962Z,102906.75
2019-01-10T15:31:01.692Z,102906.27
2019-01-10T15:33:29.708Z,102905.92
2019-01-10T15:35:57.764Z,102900.33
2019-01-10T15:38:27.988Z,102897.64
2019-01-10T15:40:56.029Z,102886.78
2019-01-10T15:43:23.935Z,102896.00
2019-01-10T15:45:51.889Z,102886.02
2019-01-10T15:48:19.751Z,102886.48
2019-01-10T15:50:47.728Z,102888.60
2019-01-10T15:53:15.779Z,102892.11
2019-01-10T15:55:43.867Z,102887.31
2019-01-10T15:58:11.695Z,102883.45
2019-01-10T16:00:39.582Z,102878.31
2019-01-10T16:03:09.656Z,102875.27
2019-01-10T16:05:37.584Z,102878.31
2019-01-10T16:08:05.601Z,102887.00
2019-01-10T16:10:33.500Z,102886.95
2019-01-10T16:13:01.461Z,102881.28
2019-01-10T16:15:29.409Z,102887.78
2019-01-10T16:17:57.430Z,102878.26
2019-01-10T16:20:25.309Z,102874.81
2019-01-10T16:22:53.350Z,102880.45
2019-01-10T16:25:21.250Z,102887.86
2019-01-10T16:27:49.150Z,102881.37
2019-01-10T16:30:20.613Z,102878.34
2019-01-10T16:32:48.418Z,102880.55
2019-01-10T16:35:16.381Z,102884.44
2019-01-10T16:37:44.560Z,102883.59
2019-01-10T16:40:12.828Z,102884.02
2019-01-10T16:42:43.314Z,102878.41
2019-01-10T16:45:24.892Z,102881.94
2019-01-10T16:47:53.006Z,102880.66
2019-01-10T16:50:21.197Z,102878.52
2019-01-10T16:52:52.027Z,102873.77
2019-01-10T16:55:20.043Z,102879.42
2019-01-10T16:57:48.175Z,102871.17
2019-01-10T17:00:33.624Z,102879.85
2019-01-10T17:03:02.319Z,102879.86
2019-01-10T17:05:32.093Z,102874.23
2019-01-10T17:08:13.263Z,102882.50
2019-01-10T17:10:41.326Z,102885.52
2019-01-10T17:13:10.924Z,102886.91
2019-01-10T17:15:44.501Z,102882.99
2019-01-10T17:18:17.955Z,102884.74
2019-01-10T17:20:46.109Z,102896.44
2019-01-10T17:23:14.230Z,102891.27
2019-01-10T17:25:42.172Z,102894.77
2019-01-10T17:28:10.247Z,102898.68
2019-01-10T17:30:38.198Z,102890.45
2019-01-10T17:33:09.202Z,102893.02
2019-01-10T17:35:38.428Z,102891.71
2019-01-10T17:38:06.804Z,102893.02
2019-01-10T17:40:36.951Z,102896.96
2019-01-10T17:43:06.129Z,102888.27
2019-01-10T17:45:38.738Z,102891.37
2019-01-10T17:48:10.503Z,102890.95
2019-01-10T17:50:38.513Z,102882.77
2019-01-10T17:53:06.572Z,102890.10
2019-01-10T17:55:34.549Z,102892.30
2019-01-10T17:58:02.468Z,102894.45
2019-01-10T18:00:30.527Z,102894.47
2019-01-10T18:02:58.378Z,102900.98
2019-01-10T18:05:26.582Z,102898.38
2019-01-10T18:07:57.192Z,102894.48
2019-01-10T18:10:25.211Z,102891.44
2019-01-10T18:12:53.171Z,102892.34
2019-01-10T18:15:23.178Z,102893.62
2019-01-10T18:17:51.378Z,102897.52
2019-01-10T18:20:26.815Z,102891.00
2019-01-10T18:22:54.761Z,102892.75
2019-01-10T18:25:22.895Z,102891.42
2019-01-10T18:27:53.556Z,102889.28
2019-01-10T18:30:22.444Z,102892.33
2019-01-10T18:32:50.794Z,102888.83
2019-01-10T18:35:19.077Z,102892.72
2019-01-10T18:37:49.798Z,102890.57
2019-01-10T18:40:17.786Z,102893.19
2019-01-10T18:42:48.703Z,102897.09
2019-01-10T18:45:23.724Z,102894.02
2019-01-10T18:47:57.036Z,102896.62
2019-01-10T18:50:22.008Z,102894.04
2019-01-10T18:52:52.297Z,102899.24
2019-01-10T18:55:20.279Z,102895.33
2019-01-10T18:57:48.274Z,102892.73
2019-01-10T19:00:22.795Z,102894.05
2019-01-10T19:02:50.665Z,102893.59
2019-01-10T19:05:18.734Z,102898.36
2019-01-10T19:07:47.030Z,102896.63
2019-01-10T19:10:17.799Z,102901.83
2019-01-10T19:12:46.119Z,102896.22
2019-01-10T19:15:14.229Z,102901.41
2019-01-10T19:17:42.210Z,102900.97
2019-01-10T19:20:14.763Z,102895.79
2019-01-10T19:22:42.613Z,102901.84
2019-01-10T19:25:10.722Z,102892.34
2019-01-10T19:27:44.172Z,102901.41
2019-01-10T19:30:18.774Z,102896.64
2019-01-10T19:32:46.681Z,102891.88
2019-01-10T19:35:14.698Z,102894.45
2019-01-10T19:37:47.621Z,102900.94
2019-01-10T19:40:18.952Z,102898.37
2019-01-10T19:42:47.051Z,102893.54
2019-01-10T19:45:17.444Z,102892.66
2019-01-10T19:47:45.371Z,102890.54
2019-01-10T19:50:19.942Z,102905.59
2019-01-10T19:52:48.033Z,102901.27
2019-01-10T19:55:21.443Z,102899.55
2019-01-10T19:57:50.232Z,102894.61
2019-01-10T20:00:22.872Z,102892.48
2019-01-10T20:02:51.049Z,102903.25
2019-01-10T20:05:19.169Z,102891.23
2019-01-10T20:07:47.037Z,102895.63
2019-01-10T20:10:15.386Z,102895.13
2019-01-10T20:12:43.545Z,102893.43
2019-01-10T20:15:11.827Z,102893.88
2019-01-10T20:17:39.908Z,102884.88
2019-01-10T20:20:32.817Z,102889.55
2019-01-10T20:23:00.865Z,102893.33
2019-01-10T20:25:28.737Z,102889.49
2019-01-10T20:27:56.689Z,102890.39
2019-01-10T20:30:24.701Z,102886.95
2019-01-10T20:32:52.639Z,102892.86
2019-01-10T20:35:20.686Z,102893.61
2019-01-10T20:37:48.706Z,102897.11
2019-01-10T20:40:17.236Z,102891.64
2019-01-10T20:42:45.465Z,102887.80
2019-01-10T20:45:13.870Z,102889.98
2019-01-10T20:47:42.141Z,102891.28
2019-01-10T20:50:10.511Z,102880.50
2019-01-10T20:52:38.315Z,102886.09
2019-01-10T20:55:08.336Z,102886.49
2019-01-10T20:57:36.543Z,102875.18
2019-01-10T21:00:11.875Z,102878.52
2019-01-10T21:02:39.878Z,102867.00
2019-01-10T21:05:07.807Z,102868.23
2019-01-10T21:07:36.080Z,102867.45
2019-01-10T21:10:06.581Z,102859.63
2019-01-10T21:12:34.423Z,102857.78
2019-01-10T21:15:03.185Z,102864.00
2019-01-10T21:17:33.294Z,102856.17
2019-01-10T21:20:01.282Z,102857.78
2019-01-10T21:22:29.426Z,102860.78
2019-01-10T21:24:57.439Z,102856.42
2019-01-10T21:27:25.285Z,102856.03
2019-01-10T21:29:55.501Z,102856.58
2019-01-10T21:32:24.067Z,102853.04
2019-01-10T21:34:56.553Z,102857.52
2019-01-10T21:37:34.030Z,102859.27
2019-01-10T21:40:02.432Z,102851.52
2019-01-10T21:42:30.361Z,102848.89
2019-01-10T21:44:58.321Z,102845.44
2019-01-10T21:47:26.244Z,102847.63
2019-01-10T21:49:56.128Z,102838.92
2019-01-10T21:52:24.194Z,102835.84
2019-01-10T21:54:52.216Z,102840.62
2019-01-10T21:57:20.312Z,102838.44
2019-01-10T21:59:48.175Z,102831.17
2019-01-10T22:02:16.163Z,102829.47
2019-01-10T22:04:44.014Z,102830.70
2019-01-10T22:07:12.035Z,102832.88
2019-01-10T22:09:40.101Z,102830.69
2019-01-10T22:12:08.014Z,102826.75
2019-01-10T22:14:35.932Z,102822.42
2019-01-10T22:17:03.787Z,102820.23
2019-01-10T22:19:31.789Z,102818.17
2019-01-10T22:21:59.681Z,102813.84
2019-01-10T22:24:27.518Z,102817.73
2019-01-10T22:26:55.733Z,102813.39
2019-01-10T22:29:23.665Z,102820.28
2019-01-10T22:31:51.882Z,102814.73
2019-01-10T22:34:20.019Z,102813.42
2019-01-10T22:36:48.122Z,102804.77
2019-01-10T22:39:16.226Z,102805.27
2019-01-10T22:41:44.141Z,102808.34
2019-01-10T22:44:12.020Z,102805.27
2019-01-10T22:46:40.059Z,102800.92
2019-01-10T22:49:08.065Z,102808.73
2019-01-10T22:51:35.939Z,102798.77
2019-01-10T22:54:04.132Z,102803.11
2019-01-10T22:56:31.954Z,102798.28
2019-01-10T22:59:00.139Z,102796.16
2019-01-10T23:01:47.084Z,102792.30
2019-01-10T23:04:29.507Z,102788.81
2019-01-10T23:06:57.548Z,102787.95
2019-01-10T23:09:25.441Z,102794.48
2019-01-10T23:11:53.416Z,102792.30
2019-01-10T23:14:21.444Z,102790.13
2019-01-10T23:16:49.716Z,102788.84
2019-01-10T23:19:18.160Z,102786.67
2019-01-10T23:21:46.081Z,102785.36
2019-01-10T23:24:16.839Z,102795.73
2019-01-10T23:26:54.728Z,102781.03
2019-01-10T23:29:34.080Z,102782.36
2019-01-10T23:32:13.525Z,102784.52
2019-01-10T23:34:48.266Z,102774.16
2019-01-10T23:37:21.992Z,102769.82
2019-01-10T23:39:50.120Z,102768.52
2019-01-10T23:42:18.013Z,102766.79
2019-01-10T23:44:46.033Z,102757.67
2019-01-10T23:47:14.106Z,102755.95
2019-01-10T23:49:42.203Z,102757.69
2019-01-10T23:52:10.076Z,102755.09
2019-01-10T23:54:38.038Z,102761.15
2019-01-10T23:57:06.333Z,102753.80
2019-01-10T23:59:34.410Z,102755.98
